sensor_id;sensor_type;location;lat;lon;timestamp;pressure;altitude;pressure_sealevel;temperature;humidity
73516;BME280;61763;51.416;5.442;2023-06-04T00:01:31;101992.22;;;12.67;65.02
73516;BME280;61763;51.416;5.442;2023-06-04T00:03:56;101987.44;;;12.74;65.68
73516;BME280;61763;51.416;5.442;2023-06-04T00:06:22;101993.41;;;12.82;65.93
73516;BME280;61763;51.416;5.442;2023-06-04T00:08:47;101985.81;;;12.70;67.25
73516;BME280;61763;51.416;5.442;2023-06-04T00:11:13;101983.28;;;12.65;68.26
73516;BME280;61763;51.416;5.442;2023-06-04T00:13:38;101982.66;;;12.58;69.19
73516;BME280;61763;51.416;5.442;2023-06-04T00:16:04;101974.03;;;12.49;70.73
73516;BME280;61763;51.416;5.442;2023-06-04T00:18:29;101979.13;;;12.56;71.41
73516;BME280;61763;51.416;5.442;2023-06-04T00:20:55;101983.16;;;12.46;72.79
73516;BME280;61763;51.416;5.442;2023-06-04T00:23:20;101983.16;;;12.46;74.04
73516;BME280;61763;51.416;5.442;2023-06-04T00:25:46;101983.16;;;12.46;75.20
73516;BME280;61763;51.416;5.442;2023-06-04T00:28:11;101979.06;;;12.36;76.31
73516;BME280;61763;51.416;5.442;2023-06-04T00:30:36;101981.25;;;12.48;76.59
73516;BME280;61763;51.416;5.442;2023-06-04T00:33:02;101978.06;;;12.60;76.22
73516;BME280;61763;51.416;5.442;2023-06-04T00:35:27;101979.31;;;12.52;77.87
73516;BME280;61763;51.416;5.442;2023-06-04T00:37:53;101972.25;;;12.48;78.97
73516;BME280;61763;51.416;5.442;2023-06-04T00:40:18;101977.22;;;12.36;79.90
73516;BME280;61763;51.416;5.442;2023-06-04T00:42:44;101976.94;;;12.44;80.88
73516;BME280;61763;51.416;5.442;2023-06-04T00:45:10;101980.13;;;12.54;80.23
73516;BME280;61763;51.416;5.442;2023-06-04T00:47:36;101975.28;;;12.40;81.98
73516;BME280;61763;51.416;5.442;2023-06-04T00:50:02;101973.03;;;12.27;83.80
73516;BME280;61763;51.416;5.442;2023-06-04T00:52:28;101965.47;;;12.14;85.45
73516;BME280;61763;51.416;5.442;2023-06-04T00:54:54;101974.47;;;12.14;86.41
73516;BME280;61763;51.416;5.442;2023-06-04T00:57:21;101976.75;;;12.01;88.00
73516;BME280;61763;51.416;5.442;2023-06-04T00:59:47;101982.16;;;12.03;88.99
73516;BME280;61763;51.416;5.442;2023-06-04T01:02:15;101976.75;;;12.01;89.55
73516;BME280;61763;51.416;5.442;2023-06-04T01:07:08;101976.31;;;12.14;90.58
73516;BME280;61763;51.416;5.442;2023-06-04T01:09:35;101971.66;;;11.94;91.89
73516;BME280;61763;51.416;5.442;2023-06-04T01:12:03;101984.13;;;11.98;92.21
73516;BME280;61763;51.416;5.442;2023-06-04T01:14:29;101974.69;;;11.84;94.38
73516;BME280;61763;51.416;5.442;2023-06-04T01:17:01;101975.31;;;11.91;94.22
73516;BME280;61763;51.416;5.442;2023-06-04T01:22:02;101974.69;;;11.84;95.59
73516;BME280;61763;51.416;5.442;2023-06-04T01:24:29;101982.41;;;11.70;96.90
73516;BME280;61763;51.416;5.442;2023-06-04T01:26:58;101980.56;;;11.72;96.83
73516;BME280;61763;51.416;5.442;2023-06-04T01:29:26;101979.13;;;11.62;98.78
73516;BME280;61763;51.416;5.442;2023-06-04T01:31:55;101994.75;;;11.53;99.69
73516;BME280;61763;51.416;5.442;2023-06-04T01:34:21;101997.91;;;11.41;100.00
73516;BME280;61763;51.416;5.442;2023-06-04T01:36:46;101990.09;;;11.32;100.00
73516;BME280;61763;51.416;5.442;2023-06-04T01:39:12;101993.53;;;11.37;100.00
73516;BME280;61763;51.416;5.442;2023-06-04T01:41:37;101991.53;;;11.42;100.00
73516;BME280;61763;51.416;5.442;2023-06-04T01:44:03;101990.72;;;11.40;100.00
73516;BME280;61763;51.416;5.442;2023-06-04T01:46:28;101982.09;;;11.29;100.00
73516;BME280;61763;51.416;5.442;2023-06-04T01:48:53;101995.59;;;11.29;100.00
73516;BME280;61763;51.416;5.442;2023-06-04T01:51:19;101990.38;;;11.24;100.00
73516;BME280;61763;51.416;5.442;2023-06-04T01:53:45;101978.63;;;11.25;100.00
73516;BME280;61763;51.416;5.442;2023-06-04T01:56:10;101985.94;;;11.21;100.00
73516;BME280;61763;51.416;5.442;2023-06-04T01:58:37;101982.59;;;11.15;100.00
73516;BME280;61763;51.416;5.442;2023-06-04T02:01:03;101988.28;;;11.32;100.00
73516;BME280;61763;51.416;5.442;2023-06-04T02:03:30;101986.75;;;11.25;100.00
73516;BME280;61763;51.416;5.442;2023-06-04T02:06:03;101987.56;;;11.27;100.00
73516;BME280;61763;51.416;5.442;2023-06-04T02:08:28;101976.81;;;11.26;100.00
73516;BME280;61763;51.416;5.442;2023-06-04T02:10:55;101986.50;;;11.31;100.00
73516;BME280;61763;51.416;5.442;2023-06-04T02:13:21;101981.34;;;11.25;100.00
73516;BME280;61763;51.416;5.442;2023-06-04T02:15:47;101975.31;;;11.17;100.00
73516;BME280;61763;51.416;5.442;2023-06-04T02:18:13;101975.03;;;11.25;100.00
73516;BME280;61763;51.416;5.442;2023-06-04T02:20:43;101984.38;;;11.14;100.00
73516;BME280;61763;51.416;5.442;2023-06-04T02:23:10;101986.22;;;11.14;100.00
73516;BME280;61763;51.416;5.442;2023-06-04T02:25:35;101982.94;;;11.04;100.00
73516;BME280;61763;51.416;5.442;2023-06-04T02:28:00;101982.81;;;11.09;100.00
73516;BME280;61763;51.416;5.442;2023-06-04T02:30:26;101982.13;;;11.02;100.00
73516;BME280;61763;51.416;5.442;2023-06-04T02:32:51;101980.19;;;11.05;100.00
73516;BME280;61763;51.416;5.442;2023-06-04T02:35:17;101978.72;;;10.97;100.00
73516;BME280;61763;51.416;5.442;2023-06-04T02:37:43;101987.91;;;10.91;100.00
73516;BME280;61763;51.416;5.442;2023-06-04T02:40:10;101988.13;;;10.83;100.00
73516;BME280;61763;51.416;5.442;2023-06-04T02:42:35;101988.53;;;10.71;100.00
73516;BME280;61763;51.416;5.442;2023-06-04T02:45:01;101980.94;;;10.84;100.00
73516;BME280;61763;51.416;5.442;2023-06-04T02:47:27;101980.25;;;10.77;100.00
73516;BME280;61763;51.416;5.442;2023-06-04T02:49:52;101978.50;;;10.75;100.00
73516;BME280;61763;51.416;5.442;2023-06-04T02:52:18;101982.50;;;10.63;100.00
73516;BME280;61763;51.416;5.442;2023-06-04T02:54:43;101988.31;;;10.50;100.00
73516;BME280;61763;51.416;5.442;2023-06-04T02:57:08;101986.31;;;10.57;100.00
73516;BME280;61763;51.416;5.442;2023-06-04T02:59:34;101990.06;;;10.51;100.00
73516;BME280;61763;51.416;5.442;2023-06-04T03:02:00;101981.44;;;10.40;100.00
73516;BME280;61763;51.416;5.442;2023-06-04T03:04:25;101979.66;;;10.39;100.00
73516;BME280;61763;51.416;5.442;2023-06-04T03:06:51;101976.84;;;10.44;100.00
73516;BME280;61763;51.416;5.442;2023-06-04T03:09:23;101981.63;;;10.34;100.00
73516;BME280;61763;51.416;5.442;2023-06-04T03:11:48;101980.75;;;10.32;100.00
73516;BME280;61763;51.416;5.442;2023-06-04T03:14:14;101987.63;;;10.44;100.00
73516;BME280;61763;51.416;5.442;2023-06-04T03:16:39;101984.03;;;10.43;100.00
73516;BME280;61763;51.416;5.442;2023-06-04T03:19:05;101985.16;;;10.36;100.00
73516;BME280;61763;51.416;5.442;2023-06-04T03:21:30;101990.72;;;10.30;100.00
73516;BME280;61763;51.416;5.442;2023-06-04T03:23:56;101993.75;;;10.19;100.00
73516;BME280;61763;51.416;5.442;2023-06-04T03:26:21;101989.59;;;10.07;100.00
73516;BME280;61763;51.416;5.442;2023-06-04T03:28:46;101985.81;;;10.14;100.00
73516;BME280;61763;51.416;5.442;2023-06-04T03:31:12;101990.38;;;10.11;100.00
73516;BME280;61763;51.416;5.442;2023-06-04T03:33:37;101997.31;;;10.20;100.00
73516;BME280;61763;51.416;5.442;2023-06-04T03:36:03;101987.59;;;10.14;100.00
73516;BME280;61763;51.416;5.442;2023-06-04T03:38:28;101984.91;;;10.14;100.00
73516;BME280;61763;51.416;5.442;2023-06-04T03:40:54;101994.53;;;10.23;100.00
73516;BME280;61763;51.416;5.442;2023-06-04T03:43:20;101989.06;;;10.24;100.00
73516;BME280;61763;51.416;5.442;2023-06-04T03:45:46;101984.75;;;10.18;100.00
73516;BME280;61763;51.416;5.442;2023-06-04T03:48:11;101983.00;;;10.17;100.00
73516;BME280;61763;51.416;5.442;2023-06-04T03:50:36;101998.34;;;10.15;100.00
73516;BME280;61763;51.416;5.442;2023-06-04T03:53:02;101987.28;;;10.25;100.00
73516;BME280;61763;51.416;5.442;2023-06-04T03:55:30;101985.47;;;10.25;100.00
73516;BME280;61763;51.416;5.442;2023-06-04T03:57:57;101986.94;;;10.37;100.00
73516;BME280;61763;51.416;5.442;2023-06-04T04:00:23;101986.13;;;10.32;100.00
73516;BME280;61763;51.416;5.442;2023-06-04T04:02:48;101986.00;;;10.38;100.00
73516;BME280;61763;51.416;5.442;2023-06-04T04:05:14;101986.88;;;10.39;100.00
73516;BME280;61763;51.416;5.442;2023-06-04T04:07:40;101990.34;;;10.42;100.00
73516;BME280;61763;51.416;5.442;2023-06-04T04:10:06;101990.91;;;10.54;100.00
73516;BME280;61763;51.416;5.442;2023-06-04T04:12:31;101989.47;;;10.42;100.00
73516;BME280;61763;51.416;5.442;2023-06-04T04:14:57;102003.56;;;10.51;100.00
73516;BME280;61763;51.416;5.442;2023-06-04T04:17:22;102000.69;;;10.58;100.00
73516;BME280;61763;51.416;5.442;2023-06-04T04:19:47;101998.94;;;10.55;100.00
73516;BME280;61763;51.416;5.442;2023-06-04T04:22:13;101998.91;;;10.57;100.00
73516;BME280;61763;51.416;5.442;2023-06-04T04:24:43;102005.97;;;10.61;100.00
73516;BME280;61763;51.416;5.442;2023-06-04T04:27:09;101997.94;;;10.59;100.00
73516;BME280;61763;51.416;5.442;2023-06-04T04:29:38;101994.41;;;10.57;100.00
73516;BME280;61763;51.416;5.442;2023-06-04T04:32:04;101995.13;;;10.62;100.00
73516;BME280;61763;51.416;5.442;2023-06-04T04:34:36;101996.16;;;10.58;100.00
73516;BME280;61763;51.416;5.442;2023-06-04T04:37:03;101996.19;;;10.57;100.00
73516;BME280;61763;51.416;5.442;2023-06-04T04:39:28;102000.56;;;10.61;100.00
73516;BME280;61763;51.416;5.442;2023-06-04T04:41:54;102004.91;;;10.66;100.00
73516;BME280;61763;51.416;5.442;2023-06-04T04:44:20;102003.81;;;10.72;100.00
73516;BME280;61763;51.416;5.442;2023-06-04T04:46:48;102010.03;;;10.74;100.00
73516;BME280;61763;51.416;5.442;2023-06-04T04:49:14;101999.19;;;10.76;100.00
73516;BME280;61763;51.416;5.442;2023-06-04T04:51:39;102007.34;;;10.74;100.00
73516;BME280;61763;51.416;5.442;2023-06-04T04:54:04;102000.88;;;10.80;100.00
73516;BME280;61763;51.416;5.442;2023-06-04T04:56:33;101990.94;;;10.80;100.00
73516;BME280;61763;51.416;5.442;2023-06-04T04:59:02;101997.03;;;10.87;100.00
73516;BME280;61763;51.416;5.442;2023-06-04T05:01:27;101991.41;;;10.93;100.00
73516;BME280;61763;51.416;5.442;2023-06-04T05:03:54;101991.19;;;10.99;100.00
73516;BME280;61763;51.416;5.442;2023-06-04T05:06:26;101992.00;;;11.03;100.00
73516;BME280;61763;51.416;5.442;2023-06-04T05:08:51;101999.72;;;11.14;100.00
73516;BME280;61763;51.416;5.442;2023-06-04T05:11:17;101993.41;;;11.15;100.00
73516;BME280;61763;51.416;5.442;2023-06-04T05:13:42;102003.00;;;11.24;100.00
73516;BME280;61763;51.416;5.442;2023-06-04T05:16:08;102006.19;;;11.35;100.00
73516;BME280;61763;51.416;5.442;2023-06-04T05:18:34;102008.72;;;11.41;100.00
73516;BME280;61763;51.416;5.442;2023-06-04T05:21:00;102001.03;;;11.54;100.00
73516;BME280;61763;51.416;5.442;2023-06-04T05:23:29;102006.94;;;11.65;100.00
73516;BME280;61763;51.416;5.442;2023-06-04T05:25:55;102002.91;;;11.77;100.00
73516;BME280;61763;51.416;5.442;2023-06-04T05:28:22;102007.13;;;11.84;100.00
73516;BME280;61763;51.416;5.442;2023-06-04T05:30:51;102005.03;;;11.92;100.00
73516;BME280;61763;51.416;5.442;2023-06-04T05:33:17;102003.78;;;12.03;100.00
73516;BME280;61763;51.416;5.442;2023-06-04T05:35:46;102004.41;;;12.09;100.00
73516;BME280;61763;51.416;5.442;2023-06-04T05:38:13;101995.28;;;12.36;100.00
73516;BME280;61763;51.416;5.442;2023-06-04T05:40:44;101999.34;;;12.70;100.00
73516;BME280;61763;51.416;5.442;2023-06-04T05:43:10;101993.94;;;12.70;99.44
73516;BME280;61763;51.416;5.442;2023-06-04T05:45:36;101999.34;;;12.70;98.40
73516;BME280;61763;51.416;5.442;2023-06-04T05:48:01;102006.22;;;12.78;98.98
73516;BME280;61763;51.416;5.442;2023-06-04T05:50:27;101994.59;;;12.75;97.78
73516;BME280;61763;51.416;5.442;2023-06-04T05:52:53;102002.38;;;12.84;97.63
73516;BME280;61763;51.416;5.442;2023-06-04T05:55:19;102000.91;;;12.97;97.09
73516;BME280;61763;51.416;5.442;2023-06-04T05:57:44;102015.72;;;13.11;94.75
73516;BME280;61763;51.416;5.442;2023-06-04T06:00:10;102013.31;;;13.25;92.82
73516;BME280;61763;51.416;5.442;2023-06-04T06:02:38;102001.38;;;13.29;91.81
73516;BME280;61763;51.416;5.442;2023-06-04T06:05:06;102000.81;;;13.43;90.21
73516;BME280;61763;51.416;5.442;2023-06-04T06:07:35;102001.34;;;13.52;88.94
73516;BME280;61763;51.416;5.442;2023-06-04T06:10:02;102008.13;;;13.62;88.97
73516;BME280;61763;51.416;5.442;2023-06-04T06:12:28;102005.72;;;13.75;86.90
73516;BME280;61763;51.416;5.442;2023-06-04T06:14:53;102011.34;;;13.91;87.52
73516;BME280;61763;51.416;5.442;2023-06-04T06:17:19;102009.75;;;14.06;84.65
73516;BME280;61763;51.416;5.442;2023-06-04T06:19:44;102009.41;;;14.13;81.55
73516;BME280;61763;51.416;5.442;2023-06-04T06:22:10;102005.00;;;14.30;83.03
73516;BME280;61763;51.416;5.442;2023-06-04T06:24:35;102008.00;;;14.43;81.92
73516;BME280;61763;51.416;5.442;2023-06-04T06:27:01;102009.19;;;14.56;81.34
73516;BME280;61763;51.416;5.442;2023-06-04T06:29:27;102017.56;;;14.70;80.38
73516;BME280;61763;51.416;5.442;2023-06-04T06:31:54;102016.91;;;14.84;82.23
73516;BME280;61763;51.416;5.442;2023-06-04T06:34:20;102014.44;;;14.97;81.56
73516;BME280;61763;51.416;5.442;2023-06-04T06:36:47;102017.50;;;15.09;77.63
73516;BME280;61763;51.416;5.442;2023-06-04T06:39:14;102021.97;;;15.10;76.17
73516;BME280;61763;51.416;5.442;2023-06-04T06:41:40;102016.56;;;15.27;76.71
73516;BME280;61763;51.416;5.442;2023-06-04T06:44:05;102017.75;;;15.39;71.59
73516;BME280;61763;51.416;5.442;2023-06-04T06:46:31;102021.03;;;15.63;72.85
73516;BME280;61763;51.416;5.442;2023-06-04T06:48:57;102024.41;;;15.68;70.78
73516;BME280;61763;51.416;5.442;2023-06-04T06:51:24;102024.72;;;15.80;66.42
73516;BME280;61763;51.416;5.442;2023-06-04T06:53:49;102020.31;;;15.94;62.69
73516;BME280;61763;51.416;5.442;2023-06-04T06:56:16;102022.84;;;15.98;67.64
73516;BME280;61763;51.416;5.442;2023-06-04T06:58:41;102035.88;;;16.08;68.91
73516;BME280;61763;51.416;5.442;2023-06-04T07:01:06;102026.84;;;16.08;64.45
73516;BME280;61763;51.416;5.442;2023-06-04T07:03:32;102027.66;;;16.26;62.58
73516;BME280;61763;51.416;5.442;2023-06-04T07:05:57;102028.19;;;16.49;59.48
73516;BME280;61763;51.416;5.442;2023-06-04T07:08:23;102028.56;;;16.58;59.98
73516;BME280;61763;51.416;5.442;2023-06-04T07:10:48;102031.66;;;16.68;58.47
73516;BME280;61763;51.416;5.442;2023-06-04T07:13:13;102033.31;;;16.71;56.61
73516;BME280;61763;51.416;5.442;2023-06-04T07:15:39;102032.53;;;16.85;53.76
73516;BME280;61763;51.416;5.442;2023-06-04T07:18:04;102030.75;;;16.84;52.21
73516;BME280;61763;51.416;5.442;2023-06-04T07:20:30;102033.97;;;16.92;51.69
73516;BME280;61763;51.416;5.442;2023-06-04T07:22:56;102033.97;;;16.92;50.28
73516;BME280;61763;51.416;5.442;2023-06-04T07:25:21;102033.31;;;17.19;51.65
73516;BME280;61763;51.416;5.442;2023-06-04T07:27:49;102021.97;;;17.41;52.36
73516;BME280;61763;51.416;5.442;2023-06-04T07:30:16;102027.47;;;17.55;48.52
73516;BME280;61763;51.416;5.442;2023-06-04T07:32:41;102029.53;;;17.66;46.99
73516;BME280;61763;51.416;5.442;2023-06-04T07:35:10;102034.66;;;17.86;47.84
73516;BME280;61763;51.416;5.442;2023-06-04T07:37:36;102020.44;;;18.10;47.29
73516;BME280;61763;51.416;5.442;2023-06-04T07:40:02;102027.28;;;18.17;46.55
73516;BME280;61763;51.416;5.442;2023-06-04T07:42:27;102023.53;;;18.33;46.23
73516;BME280;61763;51.416;5.442;2023-06-04T07:44:53;102025.59;;;18.44;44.66
73516;BME280;61763;51.416;5.442;2023-06-04T07:47:18;102029.31;;;18.43;44.27
73516;BME280;61763;51.416;5.442;2023-06-04T07:49:43;102038.00;;;18.49;44.85
73516;BME280;61763;51.416;5.442;2023-06-04T07:52:09;102030.47;;;18.53;44.50
73516;BME280;61763;51.416;5.442;2023-06-04T07:54:34;102025.28;;;18.63;43.56
73516;BME280;61763;51.416;5.442;2023-06-04T07:57:01;102026.22;;;18.76;42.82
73516;BME280;61763;51.416;5.442;2023-06-04T07:59:26;102028.63;;;18.95;43.22
73516;BME280;61763;51.416;5.442;2023-06-04T08:01:51;102033.69;;;19.01;43.66
73516;BME280;61763;51.416;5.442;2023-06-04T08:04:18;102031.72;;;19.03;41.86
73516;BME280;61763;51.416;5.442;2023-06-04T08:06:43;102019.09;;;19.28;42.06
73516;BME280;61763;51.416;5.442;2023-06-04T08:09:09;102031.66;;;19.45;40.86
73516;BME280;61763;51.416;5.442;2023-06-04T08:11:35;102029.22;;;19.40;39.64
73516;BME280;61763;51.416;5.442;2023-06-04T08:14:01;102029.00;;;19.56;40.17
73516;BME280;61763;51.416;5.442;2023-06-04T08:16:26;102027.94;;;19.59;37.92
73516;BME280;61763;51.416;5.442;2023-06-04T08:18:51;102026.97;;;19.60;37.54
73516;BME280;61763;51.416;5.442;2023-06-04T08:21:25;102020.19;;;19.66;38.66
73516;BME280;61763;51.416;5.442;2023-06-04T08:23:51;102022.38;;;19.99;38.68
73516;BME280;61763;51.416;5.442;2023-06-04T08:26:16;102028.63;;;20.27;38.20
73516;BME280;61763;51.416;5.442;2023-06-04T08:28:43;102027.06;;;20.48;35.98
73516;BME280;61763;51.416;5.442;2023-06-04T08:31:10;102020.53;;;20.62;35.03
73516;BME280;61763;51.416;5.442;2023-06-04T08:33:35;102012.97;;;20.79;35.57
73516;BME280;61763;51.416;5.442;2023-06-04T08:36:02;102021.31;;;21.02;35.20
73516;BME280;61763;51.416;5.442;2023-06-04T08:38:27;102021.41;;;21.24;35.00
73516;BME280;61763;51.416;5.442;2023-06-04T08:40:57;102024.53;;;20.95;34.49
73516;BME280;61763;51.416;5.442;2023-06-04T08:43:29;102023.69;;;21.30;33.99
73516;BME280;61763;51.416;5.442;2023-06-04T08:45:58;102017.06;;;21.68;32.92
73516;BME280;61763;51.416;5.442;2023-06-04T08:48:24;102018.63;;;21.84;32.02
73516;BME280;61763;51.416;5.442;2023-06-04T08:50:52;102024.63;;;22.00;31.28
73516;BME280;61763;51.416;5.442;2023-06-04T08:53:20;102022.25;;;21.96;30.44
73516;BME280;61763;51.416;5.442;2023-06-04T08:55:46;102017.34;;;21.77;30.36
73516;BME280;61763;51.416;5.442;2023-06-04T08:58:15;102024.84;;;21.86;30.31
73516;BME280;61763;51.416;5.442;2023-06-04T09:00:40;102030.81;;;22.38;29.56
73516;BME280;61763;51.416;5.442;2023-06-04T09:03:06;102026.88;;;22.07;29.07
73516;BME280;61763;51.416;5.442;2023-06-04T09:05:32;102023.53;;;22.14;29.11
73516;BME280;61763;51.416;5.442;2023-06-04T09:08:00;102034.75;;;22.11;28.54
73516;BME280;61763;51.416;5.442;2023-06-04T09:10:26;102029.00;;;22.03;29.63
73516;BME280;61763;51.416;5.442;2023-06-04T09:12:56;102035.13;;;21.95;29.56
73516;BME280;61763;51.416;5.442;2023-06-04T09:15:23;102033.72;;;21.78;29.69
73516;BME280;61763;51.416;5.442;2023-06-04T09:17:48;102028.00;;;22.15;29.00
73516;BME280;61763;51.416;5.442;2023-06-04T09:20:21;102034.31;;;22.51;28.84
73516;BME280;61763;51.416;5.442;2023-06-04T09:22:47;102026.97;;;22.96;29.26
73516;BME280;61763;51.416;5.442;2023-06-04T09:25:23;102035.91;;;23.09;26.42
73516;BME280;61763;51.416;5.442;2023-06-04T09:27:51;102029.63;;;23.30;25.97
73516;BME280;61763;51.416;5.442;2023-06-04T09:30:16;102020.19;;;23.00;26.45
73516;BME280;61763;51.416;5.442;2023-06-04T09:32:43;102030.13;;;23.56;26.12
73516;BME280;61763;51.416;5.442;2023-06-04T09:35:16;102039.44;;;23.43;24.70
73516;BME280;61763;51.416;5.442;2023-06-04T09:37:51;102027.44;;;23.12;24.73
73516;BME280;61763;51.416;5.442;2023-06-04T09:40:17;102019.00;;;22.70;26.09
73516;BME280;61763;51.416;5.442;2023-06-04T09:42:47;102022.25;;;22.64;25.89
73516;BME280;61763;51.416;5.442;2023-06-04T09:45:34;102020.94;;;23.34;25.96
73516;BME280;61763;51.416;5.442;2023-06-04T09:48:01;102029.78;;;23.91;25.14
73516;BME280;61763;51.416;5.442;2023-06-04T09:50:29;102020.09;;;23.76;25.29
73516;BME280;61763;51.416;5.442;2023-06-04T09:52:55;102020.75;;;23.68;24.94
73516;BME280;61763;51.416;5.442;2023-06-04T09:55:21;102013.09;;;22.74;26.08
73516;BME280;61763;51.416;5.442;2023-06-04T09:57:48;102010.09;;;23.21;25.73
73516;BME280;61763;51.416;5.442;2023-06-04T10:00:17;102013.09;;;23.30;25.90
73516;BME280;61763;51.416;5.442;2023-06-04T10:02:44;102011.16;;;23.84;25.76
73516;BME280;61763;51.416;5.442;2023-06-04T10:05:11;102002.19;;;24.12;24.64
73516;BME280;61763;51.416;5.442;2023-06-04T10:07:43;102011.88;;;24.07;25.51
73516;BME280;61763;51.416;5.442;2023-06-04T10:10:29;102014.75;;;24.26;24.43
73516;BME280;61763;51.416;5.442;2023-06-04T10:13:06;102012.97;;;23.94;24.87
73516;BME280;61763;51.416;5.442;2023-06-04T10:15:35;102016.00;;;23.49;24.41
73516;BME280;61763;51.416;5.442;2023-06-04T10:18:02;102021.03;;;23.65;25.20
73516;BME280;61763;51.416;5.442;2023-06-04T10:20:29;102033.16;;;23.95;24.45
73516;BME280;61763;51.416;5.442;2023-06-04T10:22:55;102016.31;;;23.77;24.01
73516;BME280;61763;51.416;5.442;2023-06-04T10:25:20;102009.44;;;24.13;24.60
73516;BME280;61763;51.416;5.442;2023-06-04T10:27:46;102014.28;;;24.21;24.84
73516;BME280;61763;51.416;5.442;2023-06-04T10:30:12;102012.94;;;24.56;24.30
73516;BME280;61763;51.416;5.442;2023-06-04T10:32:37;102009.06;;;24.59;24.40
73516;BME280;61763;51.416;5.442;2023-06-04T10:35:04;102006.84;;;24.22;24.56
73516;BME280;61763;51.416;5.442;2023-06-04T10:37:32;102011.09;;;23.95;24.98
73516;BME280;61763;51.416;5.442;2023-06-04T10:39:58;102018.63;;;23.18;25.48
73516;BME280;61763;51.416;5.442;2023-06-04T10:42:24;102007.84;;;23.48;25.87
73516;BME280;61763;51.416;5.442;2023-06-04T10:44:54;102016.00;;;23.49;25.39
73516;BME280;61763;51.416;5.442;2023-06-04T10:47:27;102021.84;;;23.77;24.91
73516;BME280;61763;51.416;5.442;2023-06-04T10:50:10;102017.47;;;23.74;24.15
73516;BME280;61763;51.416;5.442;2023-06-04T10:52:36;102014.78;;;23.42;23.88
73516;BME280;61763;51.416;5.442;2023-06-04T10:55:06;102005.56;;;24.16;23.80
73516;BME280;61763;51.416;5.442;2023-06-04T10:57:32;102005.47;;;24.37;24.46
73516;BME280;61763;51.416;5.442;2023-06-04T10:59:58;102012.09;;;23.73;24.77
73516;BME280;61763;51.416;5.442;2023-06-04T11:02:24;102008.25;;;24.06;24.06
73516;BME280;61763;51.416;5.442;2023-06-04T11:05:03;102000.69;;;24.08;24.63
73516;BME280;61763;51.416;5.442;2023-06-04T11:07:43;102013.81;;;24.47;23.86
73516;BME280;61763;51.416;5.442;2023-06-04T11:10:11;102009.00;;;24.49;24.24
73516;BME280;61763;51.416;5.442;2023-06-04T11:12:49;102001.41;;;23.37;25.04
73516;BME280;61763;51.416;5.442;2023-06-04T11:15:18;102009.75;;;23.89;25.71
73516;BME280;61763;51.416;5.442;2023-06-04T11:20:17;101996.53;;;24.55;22.80
73516;BME280;61763;51.416;5.442;2023-06-04T11:22:59;101992.53;;;24.69;24.43
73516;BME280;61763;51.416;5.442;2023-06-04T11:25:30;101994.59;;;24.86;23.42
73516;BME280;61763;51.416;5.442;2023-06-04T11:27:56;102003.41;;;24.70;23.23
73516;BME280;61763;51.416;5.442;2023-06-04T11:30:23;101999.25;;;24.35;24.21
73516;BME280;61763;51.416;5.442;2023-06-04T11:32:50;101990.22;;;24.83;22.55
73516;BME280;61763;51.416;5.442;2023-06-04T11:35:24;101987.94;;;25.38;23.23
73516;BME280;61763;51.416;5.442;2023-06-04T11:37:54;101979.31;;;24.82;23.29
73516;BME280;61763;51.416;5.442;2023-06-04T11:40:20;101990.59;;;23.88;24.14
73516;BME280;61763;51.416;5.442;2023-06-04T11:42:46;101993.31;;;24.49;23.57
73516;BME280;61763;51.416;5.442;2023-06-04T11:45:13;101992.22;;;24.62;23.69
73516;BME280;61763;51.416;5.442;2023-06-04T11:47:40;101979.00;;;24.65;23.60
73516;BME280;61763;51.416;5.442;2023-06-04T11:50:07;101972.06;;;25.49;23.09
73516;BME280;61763;51.416;5.442;2023-06-04T11:52:33;101978.09;;;25.82;23.30
73516;BME280;61763;51.416;5.442;2023-06-04T11:54:59;101972.09;;;25.10;23.95
73516;BME280;61763;51.416;5.442;2023-06-04T11:57:25;101981.34;;;24.80;23.95
73516;BME280;61763;51.416;5.442;2023-06-04T11:59:50;101983.41;;;24.88;23.94
73516;BME280;61763;51.416;5.442;2023-06-04T12:02:16;101981.25;;;25.11;24.14
73516;BME280;61763;51.416;5.442;2023-06-04T12:04:41;101983.56;;;25.55;24.33
73516;BME280;61763;51.416;5.442;2023-06-04T12:07:07;101975.13;;;25.46;24.14
73516;BME280;61763;51.416;5.442;2023-06-04T12:09:34;101980.66;;;25.27;24.03
73516;BME280;61763;51.416;5.442;2023-06-04T12:12:04;101968.00;;;25.44;23.35
73516;BME280;61763;51.416;5.442;2023-06-04T12:14:31;101982.38;;;25.08;23.66
73516;BME280;61763;51.416;5.442;2023-06-04T12:16:59;101983.28;;;24.99;24.00
73516;BME280;61763;51.416;5.442;2023-06-04T12:19:25;101979.91;;;24.86;23.98
73516;BME280;61763;51.416;5.442;2023-06-04T12:22:05;101978.19;;;25.24;23.73
73516;BME280;61763;51.416;5.442;2023-06-04T12:24:46;101972.22;;;25.18;24.38
73516;BME280;61763;51.416;5.442;2023-06-04T12:27:12;101961.16;;;25.38;23.16
73516;BME280;61763;51.416;5.442;2023-06-04T12:29:38;101958.63;;;25.74;23.48
73516;BME280;61763;51.416;5.442;2023-06-04T12:32:08;101945.81;;;25.83;23.04
73516;BME280;61763;51.416;5.442;2023-06-04T12:34:40;101965.69;;;24.90;25.24
73516;BME280;61763;51.416;5.442;2023-06-04T12:37:06;101966.84;;;24.97;24.22
73516;BME280;61763;51.416;5.442;2023-06-04T12:39:37;101964.78;;;25.58;23.99
73516;BME280;61763;51.416;5.442;2023-06-04T12:42:04;101970.91;;;25.23;24.65
73516;BME280;61763;51.416;5.442;2023-06-04T12:44:31;101971.19;;;24.80;25.03
73516;BME280;61763;51.416;5.442;2023-06-04T12:46:57;101970.91;;;24.93;25.33
73516;BME280;61763;51.416;5.442;2023-06-04T12:49:22;101967.56;;;25.19;25.04
73516;BME280;61763;51.416;5.442;2023-06-04T12:51:47;101968.91;;;25.44;24.67
73516;BME280;61763;51.416;5.442;2023-06-04T12:54:13;101971.47;;;24.77;25.79